Angelesalvarino — EASE — position and weather

sailwx.info

Track history (hours):
 
Tides and Currents Weather Stations Pressure Air Temp Water Temp Dewpoint Dewpoint Depression Visibility Wind Speed Wind Dir Waves Ship Positions

Angelesalvarino

Last reported at 2017-Nov-27 11:33 UTC. Time now 2017-Dec-11 09:40 UTC.
Position N 39°30' W 009°49'.
Warning: this ship's position is 13 days out of date.

Length 46 m; draft 5.6 m.

MMSI: 225431000.

Date/timePositionNaut miles runAvg speedWind from/ knotsBaromVisibWave heightAir tempDewpointWater temp
2017-Nov-27 11:33N 39°30' W 009°49'111.4
2017-Nov-27 11:29N 39°30' W 009°49'611.1
2017-Nov-27 10:56N 39°24' W 009°50'511.3
2017-Nov-27 10:30N 39°19' W 009°50'611.3
2017-Nov-27 10:00N 39°13' W 009°50'611.2
2017-Nov-27 09:31N 39°08' W 009°50'511.0
2017-Nov-27 09:01N 39°02' W 009°50'611.4
2017-Nov-27 08:31N 38°56' W 009°50'611.4
2017-Nov-27 08:01N 38°51' W 009°50'611.3
2017-Nov-27 07:30N 38°45' W 009°50'611.3
2017-Nov-27 07:01N 38°40' W 009°49'611.5
2017-Nov-27 06:31N 38°34' W 009°47'611.2
2017-Nov-27 06:00N 38°29' W 009°44'611.0
2017-Nov-27 05:30N 38°24' W 009°42'611.2
2017-Nov-27 05:00N 38°18' W 009°40'611.0
2017-Nov-27 04:30N 38°13' W 009°37'510.9
2017-Nov-27 04:00N 38°08' W 009°35'510.8
2017-Nov-27 03:30N 38°03' W 009°32'510.7
2017-Nov-27 03:00N 37°58' W 009°30'510.9
2017-Nov-27 02:31N 37°53' W 009°27'510.8
2017-Nov-27 02:01N 37°48' W 009°25'510.7
2017-Nov-27 01:31N 37°43' W 009°22'510.6
2017-Nov-27 01:01N 37°38' W 009°20'1010.9
2017-Nov-27 00:03N 37°28' W 009°15'011.3
2017-Nov-27 00:00N 37°28' W 009°14'610.9
2017-Nov-26 23:30N 37°23' W 009°13'1911.4
2017-Nov-26 21:50N 37°05' W 009°05'611.3
2017-Nov-26 21:19N 36°60' W 009°02'710.9
2017-Nov-26 20:41N 36°56' W 008°54'211.1
2017-Nov-26 20:30N 36°56' W 008°51'511.0
2017-Nov-26 20:00N 36°55' W 008°45'611.0
2017-Nov-26 19:30N 36°54' W 008°38'611.1
2017-Nov-26 19:00N 36°53' W 008°31'711.1
2017-Nov-26 18:21N 36°52' W 008°22'1411.0
2017-Nov-26 17:06N 36°50' W 008°05'111.2
2017-Nov-26 16:58N 36°49' W 008°04'510.8
2017-Nov-26 16:30N 36°48' W 007°57'22 0.5
2017-Nov-24 19:17N 37°04' W 007°38'0 0.3
2017-Nov-24 18:59N 37°04' W 007°38'0 0.0
2017-Nov-24 18:27N 37°04' W 007°38'14 0.7
2017-Nov-23 22:28N 36°56' W 007°52'6 9.0
2017-Nov-23 21:50N 36°56' W 007°59'310.0
2017-Nov-23 21:30N 36°58' W 008°03'510.1
2017-Nov-23 21:00N 36°59' W 008°09'510.0
2017-Nov-23 20:30N 37°01' W 008°15'5 9.8
2017-Nov-23 20:00N 37°02' W 008°21'4 8.1
2017-Nov-23 19:30N 37°04' W 008°25'0 0.2
2017-Nov-23 19:00N 37°04' W 008°25'0 0.0
2017-Nov-23 18:30N 37°04' W 008°25'0 0.0
2017-Nov-23 18:01N 37°04' W 008°25'0 0.0
2017-Nov-23 17:30N 37°04' W 008°25'0 0.0
2017-Nov-23 17:00N 37°04' W 008°25'3 5.4
2017-Nov-23 16:30N 37°04' W 008°28'3 5.1
2017-Nov-23 16:00N 37°03' W 008°31'1 1.8
2017-Nov-23 15:30N 37°03' W 008°30'2 4.1
2017-Nov-23 15:01N 37°03' W 008°27'1 1.1
2017-Nov-23 14:30N 37°03' W 008°28'4 8.3
2017-Nov-23 14:00N 37°03' W 008°33'3 6.5
2017-Nov-23 13:30N 37°02' W 008°37'3 6.6
2017-Nov-23 13:00N 37°02' W 008°33'3 6.9
2017-Nov-23 12:30N 37°02' W 008°29'1 3.0
2017-Nov-23 12:00N 37°03' W 008°29'4 7.5
2017-Nov-23 11:30N 37°03' W 008°34'4 7.5
2017-Nov-23 11:01N 37°03' W 008°38'2 4.2
2017-Nov-23 10:30N 37°02' W 008°41'5 9.4
2017-Nov-23 10:01N 36°58' W 008°41'5 9.5
2017-Nov-23 09:30N 36°53' W 008°40'5 7.6
2017-Nov-23 08:52N 36°51' W 008°46'3 8.8
2017-Nov-23 08:30N 36°51' W 008°50'4 8.5
2017-Nov-23 08:00N 36°56' W 008°50'4 8.7
2017-Nov-23 07:29N 37°00' W 008°50'2 4.7
2017-Nov-23 07:00N 37°02' W 008°50'0 0.0
2017-Nov-23 06:30N 37°02' W 008°50'0 0.0
2017-Nov-23 06:00N 37°02' W 008°50'0 0.0
2017-Nov-23 05:29N 37°02' W 008°50'0 0.0
2017-Nov-23 05:00N 37°02' W 008°50'0 0.0
2017-Nov-23 04:31N 37°02' W 008°50'0 0.0
2017-Nov-23 04:00N 37°02' W 008°50'0 0.0
2017-Nov-23 03:30N 37°02' W 008°50'0 0.0
2017-Nov-23 03:00N 37°02' W 008°50'0 0.0
2017-Nov-23 02:30N 37°02' W 008°50'0 0.0
2017-Nov-23 02:01N 37°02' W 008°50'0 0.0
2017-Nov-23 01:30N 37°02' W 008°50'0 0.0
2017-Nov-23 01:00N 37°02' W 008°50'0 0.0
2017-Nov-23 00:30N 37°02' W 008°50'0 0.3
2017-Nov-23 00:00N 37°02' W 008°50'0 0.3
2017-Nov-22 23:30N 37°02' W 008°50'5 9.0
2017-Nov-22 23:00N 36°60' W 008°55'13 7.1
2017-Nov-22 21:12N 37°12' W 008°57'9 9.5
2017-Nov-22 20:15N 37°21' W 008°53'2 9.4
2017-Nov-22 20:00N 37°23' W 008°52'4 7.1
2017-Nov-22 19:30N 37°26' W 008°49'  
Track history (hours):
 
Tides and Currents Weather Stations Pressure Air Temp Water Temp Dewpoint Dewpoint Depression Visibility Wind Speed Wind Dir Waves Ship Positions

Angelesalvarino

Last reported at 2017-Nov-27 11:33 UTC. Time now 2017-Dec-11 09:40 UTC.
Position N 39°30' W 009°49'.
Warning: this ship's position is 13 days out of date.

Length 46 m; draft 5.6 m.

MMSI: 225431000.

Date/timePositionNaut miles runAvg speedWind from/ knotsBaromVisibWave heightAir tempDewpointWater temp
2017-Nov-27 11:33N 39°30' W 009°49'111.4
2017-Nov-27 11:29N 39°30' W 009°49'611.1
2017-Nov-27 10:56N 39°24' W 009°50'511.3
2017-Nov-27 10:30N 39°19' W 009°50'611.3
2017-Nov-27 10:00N 39°13' W 009°50'611.2
2017-Nov-27 09:31N 39°08' W 009°50'511.0
2017-Nov-27 09:01N 39°02' W 009°50'611.4
2017-Nov-27 08:31N 38°56' W 009°50'611.4
2017-Nov-27 08:01N 38°51' W 009°50'611.3
2017-Nov-27 07:30N 38°45' W 009°50'611.3
2017-Nov-27 07:01N 38°40' W 009°49'611.5
2017-Nov-27 06:31N 38°34' W 009°47'611.2
2017-Nov-27 06:00N 38°29' W 009°44'611.0
2017-Nov-27 05:30N 38°24' W 009°42'611.2
2017-Nov-27 05:00N 38°18' W 009°40'611.0
2017-Nov-27 04:30N 38°13' W 009°37'510.9
2017-Nov-27 04:00N 38°08' W 009°35'510.8
2017-Nov-27 03:30N 38°03' W 009°32'510.7
2017-Nov-27 03:00N 37°58' W 009°30'510.9
2017-Nov-27 02:31N 37°53' W 009°27'510.8
2017-Nov-27 02:01N 37°48' W 009°25'510.7
2017-Nov-27 01:31N 37°43' W 009°22'510.6
2017-Nov-27 01:01N 37°38' W 009°20'1010.9
2017-Nov-27 00:03N 37°28' W 009°15'011.3
2017-Nov-27 00:00N 37°28' W 009°14'610.9
2017-Nov-26 23:30N 37°23' W 009°13'1911.4
2017-Nov-26 21:50N 37°05' W 009°05'611.3
2017-Nov-26 21:19N 36°60' W 009°02'710.9
2017-Nov-26 20:41N 36°56' W 008°54'211.1
2017-Nov-26 20:30N 36°56' W 008°51'511.0
2017-Nov-26 20:00N 36°55' W 008°45'611.0
2017-Nov-26 19:30N 36°54' W 008°38'611.1
2017-Nov-26 19:00N 36°53' W 008°31'711.1
2017-Nov-26 18:21N 36°52' W 008°22'1411.0
2017-Nov-26 17:06N 36°50' W 008°05'111.2
2017-Nov-26 16:58N 36°49' W 008°04'510.8
2017-Nov-26 16:30N 36°48' W 007°57'22 0.5
2017-Nov-24 19:17N 37°04' W 007°38'0 0.3
2017-Nov-24 18:59N 37°04' W 007°38'0 0.0
2017-Nov-24 18:27N 37°04' W 007°38'14 0.7
2017-Nov-23 22:28N 36°56' W 007°52'6 9.0
2017-Nov-23 21:50N 36°56' W 007°59'310.0
2017-Nov-23 21:30N 36°58' W 008°03'510.1
2017-Nov-23 21:00N 36°59' W 008°09'510.0
2017-Nov-23 20:30N 37°01' W 008°15'5 9.8
2017-Nov-23 20:00N 37°02' W 008°21'4 8.1
2017-Nov-23 19:30N 37°04' W 008°25'0 0.2
2017-Nov-23 19:00N 37°04' W 008°25'0 0.0
2017-Nov-23 18:30N 37°04' W 008°25'0 0.0
2017-Nov-23 18:01N 37°04' W 008°25'0 0.0
2017-Nov-23 17:30N 37°04' W 008°25'0 0.0
2017-Nov-23 17:00N 37°04' W 008°25'3 5.4
2017-Nov-23 16:30N 37°04' W 008°28'3 5.1
2017-Nov-23 16:00N 37°03' W 008°31'1 1.8
2017-Nov-23 15:30N 37°03' W 008°30'2 4.1
2017-Nov-23 15:01N 37°03' W 008°27'1 1.1
2017-Nov-23 14:30N 37°03' W 008°28'4 8.3
2017-Nov-23 14:00N 37°03' W 008°33'3 6.5
2017-Nov-23 13:30N 37°02' W 008°37'3 6.6
2017-Nov-23 13:00N 37°02' W 008°33'3 6.9
2017-Nov-23 12:30N 37°02' W 008°29'1 3.0
2017-Nov-23 12:00N 37°03' W 008°29'4 7.5
2017-Nov-23 11:30N 37°03' W 008°34'4 7.5
2017-Nov-23 11:01N 37°03' W 008°38'2 4.2
2017-Nov-23 10:30N 37°02' W 008°41'5 9.4
2017-Nov-23 10:01N 36°58' W 008°41'5 9.5
2017-Nov-23 09:30N 36°53' W 008°40'5 7.6
2017-Nov-23 08:52N 36°51' W 008°46'3 8.8
2017-Nov-23 08:30N 36°51' W 008°50'4 8.5
2017-Nov-23 08:00N 36°56' W 008°50'4 8.7
2017-Nov-23 07:29N 37°00' W 008°50'2 4.7
2017-Nov-23 07:00N 37°02' W 008°50'0 0.0
2017-Nov-23 06:30N 37°02' W 008°50'0 0.0
2017-Nov-23 06:00N 37°02' W 008°50'0 0.0
2017-Nov-23 05:29N 37°02' W 008°50'0 0.0
2017-Nov-23 05:00N 37°02' W 008°50'0 0.0
2017-Nov-23 04:31N 37°02' W 008°50'0 0.0
2017-Nov-23 04:00N 37°02' W 008°50'0 0.0
2017-Nov-23 03:30N 37°02' W 008°50'0 0.0
2017-Nov-23 03:00N 37°02' W 008°50'0 0.0
2017-Nov-23 02:30N 37°02' W 008°50'0 0.0
2017-Nov-23 02:01N 37°02' W 008°50'0 0.0
2017-Nov-23 01:30N 37°02' W 008°50'0 0.0
2017-Nov-23 01:00N 37°02' W 008°50'0 0.0
2017-Nov-23 00:30N 37°02' W 008°50'0 0.3
2017-Nov-23 00:00N 37°02' W 008°50'0 0.3
2017-Nov-22 23:30N 37°02' W 008°50'5 9.0
2017-Nov-22 23:00N 36°60' W 008°55'13 7.1
2017-Nov-22 21:12N 37°12' W 008°57'9 9.5
2017-Nov-22 20:15N 37°21' W 008°53'2 9.4
2017-Nov-22 20:00N 37°23' W 008°52'4 7.1
2017-Nov-22 19:30N 37°26' W 008°49'  

Dump ship's entire track history